Ampthill, Virginia
Current Conditions -  °F | °C
As of 12:55 AM on Sunday 21 Dec 2014 (Local Time) from KFCI Reporting Station
Overcast Overcast  
Wind Chill: 36°   Ceiling: 8000
Heat Index: 36°   Visibility: 10mi
Dew Point: 16°   Wind: 0mph
Humidity: 44%   Direction: NA
Pressure: 30.3"   Gusts: NA
Location:  37.4513°N, 77.4708°W
Report Text: KFCI 210555Z AUTO 00000KT 10SM FEW055 OVC080 02/M09 A3030 RMK AO1 10030 20020 57003
Loading
Personal Weather Stations






























Interactive Weather Map New forecast layout! Learn more

10-Day Weather Forecast

Advertisements
Track Severe Weather on mobile